sensor_id;sensor_type;location;lat;lon;timestamp;pressure;altitude;pressure_sealevel;temperature;humidity
54329;BME280;40710;51.120;13.136;2023-05-03T00:01:09;100417.38;;;13.98;43.81
54329;BME280;40710;51.120;13.136;2023-05-03T00:03:34;100424.19;;;13.85;44.06
54329;BME280;40710;51.120;13.136;2023-05-03T00:06:11;100423.63;;;13.95;43.92
54329;BME280;40710;51.120;13.136;2023-05-03T00:08:36;100422.72;;;13.79;44.22
54329;BME280;40710;51.120;13.136;2023-05-03T00:11:00;100424.34;;;13.64;44.21
54329;BME280;40710;51.120;13.136;2023-05-03T00:13:25;100420.06;;;13.96;43.62
54329;BME280;40710;51.120;13.136;2023-05-03T00:15:50;100429.19;;;13.54;44.47
54329;BME280;40710;51.120;13.136;2023-05-03T00:18:14;100418.78;;;13.51;44.51
54329;BME280;40710;51.120;13.136;2023-05-03T00:20:39;100424.63;;;13.58;44.34
54329;BME280;40710;51.120;13.136;2023-05-03T00:23:03;100423.13;;;13.52;44.34
54329;BME280;40710;51.120;13.136;2023-05-03T00:25:28;100421.63;;;13.66;44.18
54329;BME280;40710;51.120;13.136;2023-05-03T00:27:53;100422.59;;;13.63;44.41
54329;BME280;40710;51.120;13.136;2023-05-03T00:30:17;100415.78;;;13.59;44.72
54329;BME280;40710;51.120;13.136;2023-05-03T00:32:42;100419.13;;;13.63;44.46
54329;BME280;40710;51.120;13.136;2023-05-03T00:35:07;100427.34;;;13.37;44.79
54329;BME280;40710;51.120;13.136;2023-05-03T00:37:31;100424.94;;;13.52;44.71
54329;BME280;40710;51.120;13.136;2023-05-03T00:39:56;100435.44;;;13.34;45.23
54329;BME280;40710;51.120;13.136;2023-05-03T00:42:20;100428.72;;;13.27;44.98
54329;BME280;40710;51.120;13.136;2023-05-03T00:44:45;100434.03;;;13.45;45.19
54329;BME280;40710;51.120;13.136;2023-05-03T00:47:09;100418.66;;;13.72;44.52
54329;BME280;40710;51.120;13.136;2023-05-03T00:49:34;100425.22;;;13.82;44.12
54329;BME280;40710;51.120;13.136;2023-05-03T00:52:00;100417.38;;;13.98;43.83
54329;BME280;40710;51.120;13.136;2023-05-03T00:54:28;100418.75;;;14.05;43.64
54329;BME280;40710;51.120;13.136;2023-05-03T00:56:55;100421.25;;;13.91;44.23
54329;BME280;40710;51.120;13.136;2023-05-03T00:59:20;100409.22;;;14.03;43.58
54329;BME280;40710;51.120;13.136;2023-05-03T01:01:48;100409.91;;;14.06;43.51
54329;BME280;40710;51.120;13.136;2023-05-03T01:04:13;100414.84;;;13.77;43.90
54329;BME280;40710;51.120;13.136;2023-05-03T01:06:39;100405.34;;;13.56;44.31
54329;BME280;40710;51.120;13.136;2023-05-03T01:14:25;100403.81;;;13.52;44.17
54329;BME280;40710;51.120;13.136;2023-05-03T01:16:57;100414.44;;;13.12;44.68
54329;BME280;40710;51.120;13.136;2023-05-03T01:19:28;100414.25;;;13.36;44.51
54329;BME280;40710;51.120;13.136;2023-05-03T01:24:50;100407.50;;;13.48;44.25
54329;BME280;40710;51.120;13.136;2023-05-03T01:27:16;100416.44;;;13.26;44.49
54329;BME280;40710;51.120;13.136;2023-05-03T01:29:42;100408.63;;;13.61;43.93
54329;BME280;40710;51.120;13.136;2023-05-03T01:32:18;100412.63;;;13.51;44.67
54329;BME280;40710;51.120;13.136;2023-05-03T01:35:03;100416.31;;;13.48;44.66
54329;BME280;40710;51.120;13.136;2023-05-03T01:37:31;100410.38;;;13.43;44.52
54329;BME280;40710;51.120;13.136;2023-05-03T01:40:03;100413.31;;;13.73;44.12
54329;BME280;40710;51.120;13.136;2023-05-03T01:42:34;100421.72;;;13.26;44.87
54329;BME280;40710;51.120;13.136;2023-05-03T01:45:00;100408.28;;;13.50;44.34
54329;BME280;40710;51.120;13.136;2023-05-03T01:47:29;100410.91;;;13.50;44.05
54329;BME280;40710;51.120;13.136;2023-05-03T01:49:54;100404.44;;;13.19;44.36
54329;BME280;40710;51.120;13.136;2023-05-03T01:52:18;100423.84;;;13.18;44.54
54329;BME280;40710;51.120;13.136;2023-05-03T01:54:43;100406.00;;;13.23;44.71
54329;BME280;40710;51.120;13.136;2023-05-03T01:57:08;100405.59;;;13.32;44.89
54329;BME280;40710;51.120;13.136;2023-05-03T01:59:32;100412.31;;;13.20;45.02
54329;BME280;40710;51.120;13.136;2023-05-03T02:01:59;100411.34;;;13.21;45.34
54329;BME280;40710;51.120;13.136;2023-05-03T02:04:26;100414.47;;;13.31;45.36
54329;BME280;40710;51.120;13.136;2023-05-03T02:06:50;100398.56;;;13.33;45.35
54329;BME280;40710;51.120;13.136;2023-05-03T02:09:15;100417.91;;;13.13;45.51
54329;BME280;40710;51.120;13.136;2023-05-03T02:11:39;100419.72;;;13.12;45.63
54329;BME280;40710;51.120;13.136;2023-05-03T02:14:04;100415.72;;;13.03;46.15
54329;BME280;40710;51.120;13.136;2023-05-03T02:16:28;100419.19;;;13.04;46.16
54329;BME280;40710;51.120;13.136;2023-05-03T02:18:53;100422.72;;;13.04;46.33
54329;BME280;40710;51.120;13.136;2023-05-03T02:21:19;100416.19;;;12.74;46.74
54329;BME280;40710;51.120;13.136;2023-05-03T02:23:43;100420.91;;;12.86;47.01
54329;BME280;40710;51.120;13.136;2023-05-03T02:26:08;100426.50;;;12.80;47.22
54329;BME280;40710;51.120;13.136;2023-05-03T02:28:32;100439.28;;;12.68;47.59
54329;BME280;40710;51.120;13.136;2023-05-03T02:30:57;100434.78;;;12.71;47.88
54329;BME280;40710;51.120;13.136;2023-05-03T02:33:22;100431.72;;;12.61;48.78
54329;BME280;40710;51.120;13.136;2023-05-03T02:35:46;100436.13;;;12.60;48.90
54329;BME280;40710;51.120;13.136;2023-05-03T02:38:11;100434.56;;;12.56;48.89
54329;BME280;40710;51.120;13.136;2023-05-03T02:40:36;100437.31;;;12.53;49.31
54329;BME280;40710;51.120;13.136;2023-05-03T02:43:01;100437.66;;;12.45;49.03
54329;BME280;40710;51.120;13.136;2023-05-03T02:45:27;100442.41;;;12.58;49.15
54329;BME280;40710;51.120;13.136;2023-05-03T02:47:51;100437.72;;;12.23;49.84
54329;BME280;40710;51.120;13.136;2023-05-03T02:50:16;100434.59;;;12.15;50.37
54329;BME280;40710;51.120;13.136;2023-05-03T02:52:41;100430.94;;;12.18;50.06
54329;BME280;40710;51.120;13.136;2023-05-03T02:55:05;100441.69;;;12.34;49.73
54329;BME280;40710;51.120;13.136;2023-05-03T02:57:30;100442.56;;;12.34;49.68
54329;BME280;40710;51.120;13.136;2023-05-03T02:59:55;100438.38;;;12.49;49.17
54329;BME280;40710;51.120;13.136;2023-05-03T03:02:20;100442.63;;;12.33;49.31
54329;BME280;40710;51.120;13.136;2023-05-03T03:04:45;100445.50;;;12.47;49.44
54329;BME280;40710;51.120;13.136;2023-05-03T03:07:09;100443.34;;;12.16;49.46
54329;BME280;40710;51.120;13.136;2023-05-03T03:09:34;100448.75;;;12.33;49.60
54329;BME280;40710;51.120;13.136;2023-05-03T03:12:01;100449.88;;;12.27;49.75
54329;BME280;40710;51.120;13.136;2023-05-03T03:14:27;100458.41;;;11.90;50.31
54329;BME280;40710;51.120;13.136;2023-05-03T03:16:51;100455.78;;;11.90;50.56
54329;BME280;40710;51.120;13.136;2023-05-03T03:19:16;100458.88;;;12.22;50.00
54329;BME280;40710;51.120;13.136;2023-05-03T03:21:40;100460.59;;;12.23;49.74
54329;BME280;40710;51.120;13.136;2023-05-03T03:24:05;100456.25;;;12.22;49.74
54329;BME280;40710;51.120;13.136;2023-05-03T03:26:30;100458.56;;;11.87;50.46
54329;BME280;40710;51.120;13.136;2023-05-03T03:28:54;100464.09;;;12.23;49.71
54329;BME280;40710;51.120;13.136;2023-05-03T03:31:19;100464.75;;;12.08;50.25
54329;BME280;40710;51.120;13.136;2023-05-03T03:33:45;100467.66;;;12.22;50.21
54329;BME280;40710;51.120;13.136;2023-05-03T03:36:10;100470.91;;;12.29;50.04
54329;BME280;40710;51.120;13.136;2023-05-03T03:38:35;100476.00;;;11.67;50.39
54329;BME280;40710;51.120;13.136;2023-05-03T03:40:59;100480.19;;;11.95;50.04
54329;BME280;40710;51.120;13.136;2023-05-03T03:43:24;100480.84;;;12.22;49.34
54329;BME280;40710;51.120;13.136;2023-05-03T03:45:48;100484.28;;;12.45;48.64
54329;BME280;40710;51.120;13.136;2023-05-03T03:48:13;100488.66;;;12.44;48.93
54329;BME280;40710;51.120;13.136;2023-05-03T03:50:38;100482.81;;;12.38;49.56
54329;BME280;40710;51.120;13.136;2023-05-03T03:53:02;100484.78;;;12.53;49.24
54329;BME280;40710;51.120;13.136;2023-05-03T03:55:27;100493.03;;;12.66;49.42
54329;BME280;40710;51.120;13.136;2023-05-03T03:57:51;100488.22;;;12.55;49.28
54329;BME280;40710;51.120;13.136;2023-05-03T04:00:16;100482.41;;;12.26;50.20
54329;BME280;40710;51.120;13.136;2023-05-03T04:02:41;100499.81;;;12.51;50.85
54329;BME280;40710;51.120;13.136;2023-05-03T04:05:05;100494.53;;;12.51;50.63
54329;BME280;40710;51.120;13.136;2023-05-03T04:07:31;100500.75;;;12.29;51.01
54329;BME280;40710;51.120;13.136;2023-05-03T04:09:55;100499.69;;;12.54;50.26
54329;BME280;40710;51.120;13.136;2023-05-03T04:12:22;100501.66;;;12.49;50.39
54329;BME280;40710;51.120;13.136;2023-05-03T04:14:46;100504.00;;;12.14;50.74
54329;BME280;40710;51.120;13.136;2023-05-03T04:17:11;100514.31;;;12.41;50.69
54329;BME280;40710;51.120;13.136;2023-05-03T04:19:35;100513.53;;;12.59;50.20
54329;BME280;40710;51.120;13.136;2023-05-03T04:22:01;100518.88;;;12.58;49.43
54329;BME280;40710;51.120;13.136;2023-05-03T04:24:26;100514.47;;;12.38;49.42
54329;BME280;40710;51.120;13.136;2023-05-03T04:26:53;100513.41;;;12.42;47.27
54329;BME280;40710;51.120;13.136;2023-05-03T04:29:18;100520.84;;;12.53;47.27
54329;BME280;40710;51.120;13.136;2023-05-03T04:31:43;100523.09;;;12.62;46.75
54329;BME280;40710;51.120;13.136;2023-05-03T04:34:07;100521.03;;;12.48;47.06
54329;BME280;40710;51.120;13.136;2023-05-03T04:36:33;100528.78;;;12.30;47.53
54329;BME280;40710;51.120;13.136;2023-05-03T04:38:58;100530.53;;;12.52;47.18
54329;BME280;40710;51.120;13.136;2023-05-03T04:41:23;100538.47;;;12.52;48.04
54329;BME280;40710;51.120;13.136;2023-05-03T04:43:48;100538.13;;;12.60;47.75
54329;BME280;40710;51.120;13.136;2023-05-03T04:46:12;100541.09;;;12.52;48.55
54329;BME280;40710;51.120;13.136;2023-05-03T04:48:37;100543.94;;;12.68;48.08
54329;BME280;40710;51.120;13.136;2023-05-03T04:51:01;100539.19;;;12.56;47.40
54329;BME280;40710;51.120;13.136;2023-05-03T04:53:26;100541.97;;;12.73;46.90
54329;BME280;40710;51.120;13.136;2023-05-03T04:55:50;100555.13;;;12.53;47.37
54329;BME280;40710;51.120;13.136;2023-05-03T04:58:15;100548.63;;;12.82;47.04
54329;BME280;40710;51.120;13.136;2023-05-03T05:00:41;100540.34;;;12.69;46.76
54329;BME280;40710;51.120;13.136;2023-05-03T05:03:05;100546.34;;;12.73;46.83
54329;BME280;40710;51.120;13.136;2023-05-03T05:05:30;100543.09;;;12.67;46.61
54329;BME280;40710;51.120;13.136;2023-05-03T05:07:54;100546.09;;;12.99;46.39
54329;BME280;40710;51.120;13.136;2023-05-03T05:10:19;100554.59;;;13.06;46.64
54329;BME280;40710;51.120;13.136;2023-05-03T05:12:44;100563.38;;;12.86;46.80
54329;BME280;40710;51.120;13.136;2023-05-03T05:15:09;100554.69;;;12.84;46.47
54329;BME280;40710;51.120;13.136;2023-05-03T05:17:34;100560.84;;;13.03;47.04
54329;BME280;40710;51.120;13.136;2023-05-03T05:19:59;100563.97;;;13.13;46.05
54329;BME280;40710;51.120;13.136;2023-05-03T05:22:23;100553.69;;;13.26;45.48
54329;BME280;40710;51.120;13.136;2023-05-03T05:24:48;100560.06;;;12.81;46.19
54329;BME280;40710;51.120;13.136;2023-05-03T05:27:12;100564.34;;;13.04;46.28
54329;BME280;40710;51.120;13.136;2023-05-03T05:29:37;100575.78;;;13.23;45.65
54329;BME280;40710;51.120;13.136;2023-05-03T05:32:01;100563.16;;;13.11;45.65
54329;BME280;40710;51.120;13.136;2023-05-03T05:34:27;100566.38;;;13.38;45.47
54329;BME280;40710;51.120;13.136;2023-05-03T05:36:51;100565.28;;;13.42;45.14
54329;BME280;40710;51.120;13.136;2023-05-03T05:39:16;100562.22;;;13.71;44.59
54329;BME280;40710;51.120;13.136;2023-05-03T05:41:41;100571.09;;;13.89;45.31
54329;BME280;40710;51.120;13.136;2023-05-03T05:44:05;100575.78;;;13.44;45.41
54329;BME280;40710;51.120;13.136;2023-05-03T05:46:30;100567.16;;;13.59;45.18
54329;BME280;40710;51.120;13.136;2023-05-03T05:48:55;100570.88;;;13.74;44.65
54329;BME280;40710;51.120;13.136;2023-05-03T05:51:19;100556.75;;;14.48;43.30
54329;BME280;40710;51.120;13.136;2023-05-03T05:53:44;100569.16;;;13.92;44.10
54329;BME280;40710;51.120;13.136;2023-05-03T05:56:09;100565.94;;;13.86;43.45
54329;BME280;40710;51.120;13.136;2023-05-03T05:58:35;100567.16;;;13.59;43.77
54329;BME280;40710;51.120;13.136;2023-05-03T06:01:00;100566.38;;;14.13;43.68
54329;BME280;40710;51.120;13.136;2023-05-03T06:03:25;100566.72;;;14.07;42.81
54329;BME280;40710;51.120;13.136;2023-05-03T06:05:50;100574.44;;;13.92;43.64
54329;BME280;40710;51.120;13.136;2023-05-03T06:08:14;100577.31;;;13.69;43.87
54329;BME280;40710;51.120;13.136;2023-05-03T06:10:39;100578.53;;;12.60;44.83
54329;BME280;40710;51.120;13.136;2023-05-03T06:13:03;100577.66;;;13.42;43.72
54329;BME280;40710;51.120;13.136;2023-05-03T06:15:28;100571.88;;;13.72;43.42
54329;BME280;40710;51.120;13.136;2023-05-03T06:17:52;100569.25;;;13.72;42.90
54329;BME280;40710;51.120;13.136;2023-05-03T06:20:17;100568.47;;;13.70;42.93
54329;BME280;40710;51.120;13.136;2023-05-03T06:22:41;100564.50;;;14.16;41.93
54329;BME280;40710;51.120;13.136;2023-05-03T06:25:06;100571.28;;;13.07;42.62
54329;BME280;40710;51.120;13.136;2023-05-03T06:27:31;100578.31;;;13.66;42.77
54329;BME280;40710;51.120;13.136;2023-05-03T06:29:55;100570.75;;;14.50;41.04
54329;BME280;40710;51.120;13.136;2023-05-03T06:32:20;100559.34;;;14.13;41.53
54329;BME280;40710;51.120;13.136;2023-05-03T06:34:45;100575.63;;;13.08;42.34
54329;BME280;40710;51.120;13.136;2023-05-03T06:37:09;100565.25;;;13.63;41.86
54329;BME280;40710;51.120;13.136;2023-05-03T06:39:34;100564.34;;;14.00;41.39
54329;BME280;40710;51.120;13.136;2023-05-03T06:41:58;100565.28;;;14.36;41.24
54329;BME280;40710;51.120;13.136;2023-05-03T06:44:23;100557.06;;;14.60;40.20
54329;BME280;40710;51.120;13.136;2023-05-03T06:46:48;100565.44;;;14.50;40.94
54329;BME280;40710;51.120;13.136;2023-05-03T06:49:12;100564.53;;;14.69;41.66
54329;BME280;40710;51.120;13.136;2023-05-03T06:51:37;100573.34;;;14.15;41.71
54329;BME280;40710;51.120;13.136;2023-05-03T06:54:02;100566.22;;;14.35;40.97
54329;BME280;40710;51.120;13.136;2023-05-03T06:56:30;100574.25;;;14.14;40.97
54329;BME280;40710;51.120;13.136;2023-05-03T06:58:55;100575.28;;;13.93;41.27
54329;BME280;40710;51.120;13.136;2023-05-03T07:01:19;100563.50;;;14.36;40.87
54329;BME280;40710;51.120;13.136;2023-05-03T07:03:44;100563.34;;;15.09;39.76
54329;BME280;40710;51.120;13.136;2023-05-03T07:06:08;100558.50;;;15.34;39.62
54329;BME280;40710;51.120;13.136;2023-05-03T07:08:33;100559.44;;;14.66;39.03
54329;BME280;40710;51.120;13.136;2023-05-03T07:10:58;100566.59;;;14.27;39.84
54329;BME280;40710;51.120;13.136;2023-05-03T07:13:22;100558.50;;;15.34;39.41
54329;BME280;40710;51.120;13.136;2023-05-03T07:15:47;100554.66;;;16.04;39.51
54329;BME280;40710;51.120;13.136;2023-05-03T07:18:11;100552.41;;;16.13;39.33
54329;BME280;40710;51.120;13.136;2023-05-03T07:20:36;100545.69;;;16.37;37.85
54329;BME280;40710;51.120;13.136;2023-05-03T07:23:00;100553.31;;;15.97;39.60
54329;BME280;40710;51.120;13.136;2023-05-03T07:25:25;100560.06;;;16.03;39.14
54329;BME280;40710;51.120;13.136;2023-05-03T07:27:50;100562.59;;;15.73;39.59
54329;BME280;40710;51.120;13.136;2023-05-03T07:30:15;100548.75;;;15.99;37.34
54329;BME280;40710;51.120;13.136;2023-05-03T07:32:40;100550.47;;;16.47;36.96
54329;BME280;40710;51.120;13.136;2023-05-03T07:35:05;100538.78;;;15.88;37.43
54329;BME280;40710;51.120;13.136;2023-05-03T07:37:31;100556.06;;;15.30;38.70
54329;BME280;40710;51.120;13.136;2023-05-03T07:39:55;100553.78;;;14.89;38.56
54329;BME280;40710;51.120;13.136;2023-05-03T07:42:20;100537.78;;;16.05;37.04
54329;BME280;40710;51.120;13.136;2023-05-03T07:44:44;100544.22;;;16.01;38.51
54329;BME280;40710;51.120;13.136;2023-05-03T07:47:09;100539.69;;;16.34;37.08
54329;BME280;40710;51.120;13.136;2023-05-03T07:49:36;100537.69;;;16.98;36.94
54329;BME280;40710;51.120;13.136;2023-05-03T07:52:01;100542.53;;;17.06;37.84
54329;BME280;40710;51.120;13.136;2023-05-03T07:54:26;100537.72;;;16.37;36.92
54329;BME280;40710;51.120;13.136;2023-05-03T07:56:50;100540.88;;;16.74;37.08
54329;BME280;40710;51.120;13.136;2023-05-03T07:59:15;100538.97;;;16.62;35.82
54329;BME280;40710;51.120;13.136;2023-05-03T08:01:39;100527.44;;;17.35;35.21
54329;BME280;40710;51.120;13.136;2023-05-03T08:04:04;100526.19;;;17.55;34.54
54329;BME280;40710;51.120;13.136;2023-05-03T08:06:28;100548.25;;;15.27;38.19
54329;BME280;40710;51.120;13.136;2023-05-03T08:08:53;100542.94;;;16.69;36.88
54329;BME280;40710;51.120;13.136;2023-05-03T08:11:17;100543.13;;;17.95;35.69
54329;BME280;40710;51.120;13.136;2023-05-03T08:13:44;100537.38;;;18.02;35.84
54329;BME280;40710;51.120;13.136;2023-05-03T08:16:08;100534.19;;;17.97;35.41
54329;BME280;40710;51.120;13.136;2023-05-03T08:18:33;100514.59;;;18.78;33.49
54329;BME280;40710;51.120;13.136;2023-05-03T08:20:58;100528.91;;;18.49;34.61
54329;BME280;40710;51.120;13.136;2023-05-03T08:23:23;100531.44;;;18.91;34.49
54329;BME280;40710;51.120;13.136;2023-05-03T08:25:48;100517.97;;;19.31;34.09
54329;BME280;40710;51.120;13.136;2023-05-03T08:28:13;100548.88;;;17.32;37.05
54329;BME280;40710;51.120;13.136;2023-05-03T08:30:39;100543.75;;;17.57;34.55
54329;BME280;40710;51.120;13.136;2023-05-03T08:33:03;100546.81;;;17.08;36.54
54329;BME280;40710;51.120;13.136;2023-05-03T08:35:28;100532.56;;;18.21;34.32
54329;BME280;40710;51.120;13.136;2023-05-03T08:37:52;100526.97;;;19.04;33.70
54329;BME280;40710;51.120;13.136;2023-05-03T08:40:20;100534.84;;;18.40;34.40
54329;BME280;40710;51.120;13.136;2023-05-03T08:42:46;100534.91;;;19.43;34.68
54329;BME280;40710;51.120;13.136;2023-05-03T08:45:13;100517.56;;;21.50;29.59
54329;BME280;40710;51.120;13.136;2023-05-03T08:47:39;100525.50;;;20.71;31.19
54329;BME280;40710;51.120;13.136;2023-05-03T08:50:05;100537.09;;;20.94;32.28
54329;BME280;40710;51.120;13.136;2023-05-03T08:52:30;100519.16;;;19.77;31.37
54329;BME280;40710;51.120;13.136;2023-05-03T08:54:54;100525.41;;;19.39;31.76
54329;BME280;40710;51.120;13.136;2023-05-03T08:57:22;100529.22;;;19.60;31.31
54329;BME280;40710;51.120;13.136;2023-05-03T08:59:51;100525.41;;;18.49;32.10
54329;BME280;40710;51.120;13.136;2023-05-03T09:02:21;100551.75;;;17.43;33.45
54329;BME280;40710;51.120;13.136;2023-05-03T09:04:46;100544.63;;;17.85;33.89
54329;BME280;40710;51.120;13.136;2023-05-03T09:07:12;100533.03;;;19.69;32.26
54329;BME280;40710;51.120;13.136;2023-05-03T09:09:39;100527.19;;;19.51;32.14
54329;BME280;40710;51.120;13.136;2023-05-03T09:12:04;100529.19;;;19.11;32.31
54329;BME280;40710;51.120;13.136;2023-05-03T09:14:29;100525.03;;;20.06;32.80
54329;BME280;40710;51.120;13.136;2023-05-03T09:16:53;100514.28;;;21.46;30.66
54329;BME280;40710;51.120;13.136;2023-05-03T09:19:18;100511.94;;;20.96;30.48
54329;BME280;40710;51.120;13.136;2023-05-03T09:21:44;100512.25;;;21.82;29.27
54329;BME280;40710;51.120;13.136;2023-05-03T09:24:17;100523.72;;;21.28;30.54
54329;BME280;40710;51.120;13.136;2023-05-03T09:26:43;100510.72;;;21.57;28.84
54329;BME280;40710;51.120;13.136;2023-05-03T09:29:08;100517.28;;;21.19;29.65
54329;BME280;40710;51.120;13.136;2023-05-03T09:31:34;100526.59;;;19.72;31.06
54329;BME280;40710;51.120;13.136;2023-05-03T09:33:59;100516.50;;;19.01;31.55
54329;BME280;40710;51.120;13.136;2023-05-03T09:36:25;100531.94;;;19.09;32.73
54329;BME280;40710;51.120;13.136;2023-05-03T09:38:51;100522.19;;;18.44;32.47
54329;BME280;40710;51.120;13.136;2023-05-03T09:41:25;100546.25;;;18.02;33.75
54329;BME280;40710;51.120;13.136;2023-05-03T09:43:51;100523.81;;;18.59;34.54
54329;BME280;40710;51.120;13.136;2023-05-03T09:46:17;100527.25;;;18.21;33.03
54329;BME280;40710;51.120;13.136;2023-05-03T09:48:42;100525.19;;;18.39;33.52
54329;BME280;40710;51.120;13.136;2023-05-03T09:51:08;100524.75;;;18.58;32.89
54329;BME280;40710;51.120;13.136;2023-05-03T09:53:35;100518.22;;;19.78;31.53
54329;BME280;40710;51.120;13.136;2023-05-03T09:56:02;100500.16;;;21.10;29.53
54329;BME280;40710;51.120;13.136;2023-05-03T09:58:28;100495.31;;;22.89;28.79
54329;BME280;40710;51.120;13.136;2023-05-03T10:00:54;100486.19;;;23.01;27.49
54329;BME280;40710;51.120;13.136;2023-05-03T10:03:26;100491.06;;;23.07;28.52
54329;BME280;40710;51.120;13.136;2023-05-03T10:05:53;100495.72;;;22.63;29.18
54329;BME280;40710;51.120;13.136;2023-05-03T10:10:50;100511.69;;;20.06;31.29
54329;BME280;40710;51.120;13.136;2023-05-03T10:13:22;100511.47;;;20.45;32.23
54329;BME280;40710;51.120;13.136;2023-05-03T10:15:53;100498.47;;;21.55;30.04
54329;BME280;40710;51.120;13.136;2023-05-03T10:18:25;100496.69;;;22.08;29.56
54329;BME280;40710;51.120;13.136;2023-05-03T10:21:00;100481.31;;;23.56;28.66
54329;BME280;40710;51.120;13.136;2023-05-03T10:23:25;100487.13;;;23.71;27.39
54329;BME280;40710;51.120;13.136;2023-05-03T10:26:12;100465.22;;;25.01;24.61
54329;BME280;40710;51.120;13.136;2023-05-03T10:28:37;100468.94;;;25.56;24.99
54329;BME280;40710;51.120;13.136;2023-05-03T10:31:02;100469.56;;;25.85;25.24
54329;BME280;40710;51.120;13.136;2023-05-03T10:33:31;100458.84;;;26.48;23.79
54329;BME280;40710;51.120;13.136;2023-05-03T10:35:58;100471.78;;;24.89;25.44
54329;BME280;40710;51.120;13.136;2023-05-03T10:38:26;100470.59;;;25.84;26.54
54329;BME280;40710;51.120;13.136;2023-05-03T10:40:52;100460.19;;;26.26;23.53
54329;BME280;40710;51.120;13.136;2023-05-03T10:45:59;100460.16;;;25.54;24.93
54329;BME280;40710;51.120;13.136;2023-05-03T10:48:24;100459.63;;;26.92;24.42
54329;BME280;40710;51.120;13.136;2023-05-03T10:50:49;100450.22;;;27.39;23.44
54329;BME280;40710;51.120;13.136;2023-05-03T10:58:44;100478.69;;;23.86;27.82
54329;BME280;40710;51.120;13.136;2023-05-03T11:01:12;100458.41;;;25.62;24.51
54329;BME280;40710;51.120;13.136;2023-05-03T11:03:50;100455.84;;;26.33;24.13
54329;BME280;40710;51.120;13.136;2023-05-03T11:06:31;100464.25;;;25.02;24.31
54329;BME280;40710;51.120;13.136;2023-05-03T11:08:56;100474.22;;;25.20;26.71
54329;BME280;40710;51.120;13.136;2023-05-03T11:11:21;100468.19;;;24.70;24.87
54329;BME280;40710;51.120;13.136;2023-05-03T11:13:46;100468.22;;;24.31;25.48
54329;BME280;40710;51.120;13.136;2023-05-03T11:16:11;100467.03;;;24.83;25.95
54329;BME280;40710;51.120;13.136;2023-05-03T11:18:35;100471.47;;;24.35;26.97
54329;BME280;40710;51.120;13.136;2023-05-03T11:21:00;100469.22;;;24.21;27.39
54329;BME280;40710;51.120;13.136;2023-05-03T11:23:28;100460.13;;;25.63;24.67
54329;BME280;40710;51.120;13.136;2023-05-03T11:25:53;100457.63;;;25.52;24.48
54329;BME280;40710;51.120;13.136;2023-05-03T11:28:18;100453.47;;;24.65;24.88
54329;BME280;40710;51.120;13.136;2023-05-03T11:30:45;100456.53;;;25.45;25.20
54329;BME280;40710;51.120;13.136;2023-05-03T11:33:10;100447.16;;;26.39;23.96
54329;BME280;40710;51.120;13.136;2023-05-03T11:35:34;100452.69;;;26.37;25.20
54329;BME280;40710;51.120;13.136;2023-05-03T11:37:59;100444.41;;;25.59;22.59
54329;BME280;40710;51.120;13.136;2023-05-03T11:40:24;100461.59;;;23.17;24.52
54329;BME280;40710;51.120;13.136;2023-05-03T11:42:50;100465.00;;;23.99;24.90
54329;BME280;40710;51.120;13.136;2023-05-03T11:45:16;100450.78;;;25.58;24.22
54329;BME280;40710;51.120;13.136;2023-05-03T11:47:41;100444.56;;;27.16;24.42
54329;BME280;40710;51.120;13.136;2023-05-03T11:50:06;100460.34;;;24.30;25.24
54329;BME280;40710;51.120;13.136;2023-05-03T11:52:31;100457.72;;;25.60;24.56
54329;BME280;40710;51.120;13.136;2023-05-03T11:54:56;100450.66;;;25.77;24.15
54329;BME280;40710;51.120;13.136;2023-05-03T11:57:20;100461.72;;;24.34;25.97
54329;BME280;40710;51.120;13.136;2023-05-03T11:59:45;100455.53;;;25.18;24.42
54329;BME280;40710;51.120;13.136;2023-05-03T12:02:12;100455.38;;;24.92;25.37
54329;BME280;40710;51.120;13.136;2023-05-03T12:04:38;100462.88;;;23.92;26.91
54329;BME280;40710;51.120;13.136;2023-05-03T12:07:08;100467.69;;;24.18;27.09
54329;BME280;40710;51.120;13.136;2023-05-03T12:09:34;100471.78;;;23.33;28.28
54329;BME280;40710;51.120;13.136;2023-05-03T12:11:59;100480.78;;;21.63;27.92
54329;BME280;40710;51.120;13.136;2023-05-03T12:14:24;100467.75;;;22.56;28.52
54329;BME280;40710;51.120;13.136;2023-05-03T12:16:51;100469.31;;;23.10;27.59
54329;BME280;40710;51.120;13.136;2023-05-03T12:19:26;100466.78;;;23.09;26.63
54329;BME280;40710;51.120;13.136;2023-05-03T12:21:51;100453.28;;;23.30;26.54
54329;BME280;40710;51.120;13.136;2023-05-03T12:24:15;100439.56;;;23.83;25.37
54329;BME280;40710;51.120;13.136;2023-05-03T12:26:43;100449.72;;;23.89;26.32
54329;BME280;40710;51.120;13.136;2023-05-03T12:29:08;100448.53;;;24.98;26.40
54329;BME280;40710;51.120;13.136;2023-05-03T12:31:32;100436.53;;;24.92;23.87
54329;BME280;40710;51.120;13.136;2023-05-03T12:33:57;100430.34;;;25.19;24.42
54329;BME280;40710;51.120;13.136;2023-05-03T12:36:21;100430.88;;;23.40;25.08
54329;BME280;40710;51.120;13.136;2023-05-03T12:38:46;100438.59;;;24.04;26.50
54329;BME280;40710;51.120;13.136;2023-05-03T12:41:10;100420.91;;;24.78;23.58
54329;BME280;40710;51.120;13.136;2023-05-03T12:43:35;100423.56;;;24.30;24.32
54329;BME280;40710;51.120;13.136;2023-05-03T12:45:59;100422.44;;;24.23;25.97
54329;BME280;40710;51.120;13.136;2023-05-03T12:48:25;100431.22;;;24.06;26.17
54329;BME280;40710;51.120;13.136;2023-05-03T12:50:50;100438.78;;;24.59;26.26